Airfield :







YOU CAN JOIN US ON...

 
LOGIN :

Register | Disclaimer

   EN    FR    IT 

 









Legend :    VFR   Marginal VFR   IFR   Intensive IFR   Very Intensive IFR
Visi :
Ceiling :
>= 8 km
>= 3000ft
5 to 8 km
1000 to 3000 ft
1500m to 5 km
500 to 1000 ft
800 to 1500m
200 to 500 ft
< 800m
< 200 ft
Symbols :   Thunderstorms  Fog  Heavy snow  Heavy precipitations  Wind > 20 kt






- Airport Elevation : 276 ft
- IATA code : BVB


SBBV - Boa Vista Int.

CURRENT METAR :
  • 242000Z 15006KT 9999 SCT030 FEW035TCU BKN080 27/23 Q1007 RETS

EXPIRED METARs :
  • 241925Z 12011KT 9999 TS SCT030 FEW035CB BKN080 27/24 Q1008
  • 241900Z 34007KT 9999 VCSH SCT035 FEW040TCU OVC080 29/23 Q1007 RETS
  • 241810Z 28010KT 9999 TS SCT035 FEW040CB BKN080 29/22 Q1008
  • 241800Z 11005KT 9999 VCSH SCT035 FEW040TCU BKN090 32/21 Q1008

TAF TAF SBBV
Valid from the 24 at 18:00 until the 25 at 18:00 UTC


241635Z 2418/2518 12007KT 9999 BKN030 FEW040TCU TX34/2419Z TN25/2510Z
PROB30
TEMPO 2418/2422 6000 TSRA BKN020 FEW030CB
BECMG 2422/2424 06005KT 8000 BKN035
PROB40
TEMPO 2502/2510 08010KT 4000 SHRA BKN015 FEW025TCU
BECMG 2511/2513 10010KT SCT030
BECMG 2514/2516 BKN027 FEW035TCU RMK PGB
SBAZ FIR / South America



MET'MAP, your aeronautical weather chart ! - Copyright ORBIFLY December 2007 - Disclaimer

ORBIFLY MET'MAP TEAM :

Programming & Development : Alexandra Zaïnal
Concept & original design : Baudouin d'Aumeries
Assistance for programming : Marc-Olivier Méhu
Technical & hardware support : Manuel Goepfert

Contact : metmap@orbifly.com




SOURCES & CREDITS :

   NOAA